sensor_id;sensor_type;location;lat;lon;timestamp;temperature;humidity
18189;DHT22;9219;50.396;8.546;2023-05-15T00:00:18;14.20;99.90
18189;DHT22;9219;50.396;8.546;2023-05-15T00:02:46;14.00;99.90
18189;DHT22;9219;50.396;8.546;2023-05-15T00:05:14;13.90;99.90
18189;DHT22;9219;50.396;8.546;2023-05-15T00:07:43;13.80;99.90
18189;DHT22;9219;50.396;8.546;2023-05-15T00:15:15;13.80;99.90
18189;DHT22;9219;50.396;8.546;2023-05-15T00:17:43;13.80;99.90
18189;DHT22;9219;50.396;8.546;2023-05-15T00:20:11;13.80;99.90
18189;DHT22;9219;50.396;8.546;2023-05-15T00:22:38;13.80;99.90
18189;DHT22;9219;50.396;8.546;2023-05-15T00:25:07;13.80;99.90
18189;DHT22;9219;50.396;8.546;2023-05-15T00:27:34;13.70;99.90
18189;DHT22;9219;50.396;8.546;2023-05-15T00:30:02;13.60;99.90
18189;DHT22;9219;50.396;8.546;2023-05-15T00:37:34;13.30;99.90
18189;DHT22;9219;50.396;8.546;2023-05-15T00:40:02;13.10;99.90
18189;DHT22;9219;50.396;8.546;2023-05-15T00:42:30;13.00;99.90
18189;DHT22;9219;50.396;8.546;2023-05-15T00:45:00;13.00;99.90
18189;DHT22;9219;50.396;8.546;2023-05-15T00:47:28;13.00;99.90
18189;DHT22;9219;50.396;8.546;2023-05-15T00:49:56;13.10;99.90
18189;DHT22;9219;50.396;8.546;2023-05-15T00:52:24;13.30;99.90
18189;DHT22;9219;50.396;8.546;2023-05-15T00:54:52;13.30;99.90
18189;DHT22;9219;50.396;8.546;2023-05-15T01:02:25;13.30;99.90
18189;DHT22;9219;50.396;8.546;2023-05-15T01:04:53;13.30;99.90
18189;DHT22;9219;50.396;8.546;2023-05-15T01:07:20;13.20;99.90
18189;DHT22;9219;50.396;8.546;2023-05-15T01:09:48;13.20;99.90
18189;DHT22;9219;50.396;8.546;2023-05-15T01:12:16;13.20;99.90
18189;DHT22;9219;50.396;8.546;2023-05-15T01:14:44;13.00;99.90
18189;DHT22;9219;50.396;8.546;2023-05-15T01:17:12;12.90;99.90
18189;DHT22;9219;50.396;8.546;2023-05-15T01:22:48;12.90;99.90
18189;DHT22;9219;50.396;8.546;2023-05-15T01:25:45;12.80;99.90
18189;DHT22;9219;50.396;8.546;2023-05-15T01:28:24;12.90;99.90
18189;DHT22;9219;50.396;8.546;2023-05-15T01:30:54;13.00;99.90
18189;DHT22;9219;50.396;8.546;2023-05-15T01:33:25;13.10;99.90
18189;DHT22;9219;50.396;8.546;2023-05-15T01:35:58;13.20;99.90
18189;DHT22;9219;50.396;8.546;2023-05-15T01:38:32;13.20;99.90
18189;DHT22;9219;50.396;8.546;2023-05-15T01:46:05;13.10;99.90
18189;DHT22;9219;50.396;8.546;2023-05-15T01:48:34;13.10;99.90
18189;DHT22;9219;50.396;8.546;2023-05-15T01:51:04;13.20;99.90
18189;DHT22;9219;50.396;8.546;2023-05-15T01:53:33;13.10;99.90
18189;DHT22;9219;50.396;8.546;2023-05-15T01:56:01;12.90;99.90
18189;DHT22;9219;50.396;8.546;2023-05-15T01:58:30;12.90;99.90
18189;DHT22;9219;50.396;8.546;2023-05-15T02:00:59;12.90;99.90
18189;DHT22;9219;50.396;8.546;2023-05-15T02:03:29;12.70;99.90
18189;DHT22;9219;50.396;8.546;2023-05-15T02:11:17;12.60;99.90
18189;DHT22;9219;50.396;8.546;2023-05-15T02:13:45;12.80;99.90
18189;DHT22;9219;50.396;8.546;2023-05-15T02:16:12;12.70;99.90
18189;DHT22;9219;50.396;8.546;2023-05-15T02:18:40;12.60;99.90
18189;DHT22;9219;50.396;8.546;2023-05-15T02:21:08;12.60;99.90
18189;DHT22;9219;50.396;8.546;2023-05-15T02:23:35;12.60;99.90
18189;DHT22;9219;50.396;8.546;2023-05-15T02:26:11;12.40;99.90
18189;DHT22;9219;50.396;8.546;2023-05-15T02:28:49;12.40;99.90
18189;DHT22;9219;50.396;8.546;2023-05-15T02:31:39;12.40;99.90
18189;DHT22;9219;50.396;8.546;2023-05-15T02:34:25;12.40;99.90
18189;DHT22;9219;50.396;8.546;2023-05-15T02:36:57;12.40;99.90
18189;DHT22;9219;50.396;8.546;2023-05-15T02:39:26;12.50;99.90
18189;DHT22;9219;50.396;8.546;2023-05-15T02:41:56;12.50;99.90
18189;DHT22;9219;50.396;8.546;2023-05-15T02:44:24;12.40;99.90
18189;DHT22;9219;50.396;8.546;2023-05-15T02:46:53;12.40;99.90
18189;DHT22;9219;50.396;8.546;2023-05-15T02:54:25;12.20;99.90
18189;DHT22;9219;50.396;8.546;2023-05-15T02:56:53;12.00;99.90
18189;DHT22;9219;50.396;8.546;2023-05-15T02:59:20;12.00;99.90
18189;DHT22;9219;50.396;8.546;2023-05-15T03:01:47;11.90;99.90
18189;DHT22;9219;50.396;8.546;2023-05-15T03:04:15;12.00;99.90
18189;DHT22;9219;50.396;8.546;2023-05-15T03:06:42;11.90;99.90
18189;DHT22;9219;50.396;8.546;2023-05-15T03:09:09;12.00;99.90
18189;DHT22;9219;50.396;8.546;2023-05-15T03:14:15;12.00;99.90
18189;DHT22;9219;50.396;8.546;2023-05-15T03:16:42;12.00;99.90
18189;DHT22;9219;50.396;8.546;2023-05-15T03:19:09;11.90;99.90
18189;DHT22;9219;50.396;8.546;2023-05-15T03:21:37;12.00;99.90
18189;DHT22;9219;50.396;8.546;2023-05-15T03:24:05;11.90;99.90
18189;DHT22;9219;50.396;8.546;2023-05-15T03:26:33;11.90;99.90
18189;DHT22;9219;50.396;8.546;2023-05-15T03:29:00;11.90;99.90
18189;DHT22;9219;50.396;8.546;2023-05-15T03:31:29;12.00;99.90
18189;DHT22;9219;50.396;8.546;2023-05-15T03:39:02;11.80;99.90
18189;DHT22;9219;50.396;8.546;2023-05-15T03:41:30;11.90;99.90
18189;DHT22;9219;50.396;8.546;2023-05-15T03:43:57;11.90;99.90
18189;DHT22;9219;50.396;8.546;2023-05-15T03:46:24;12.00;99.90
18189;DHT22;9219;50.396;8.546;2023-05-15T03:48:52;11.90;99.90
18189;DHT22;9219;50.396;8.546;2023-05-15T03:51:21;11.90;99.90
18189;DHT22;9219;50.396;8.546;2023-05-15T03:53:49;12.00;99.90
18189;DHT22;9219;50.396;8.546;2023-05-15T03:58:59;11.90;99.90
18189;DHT22;9219;50.396;8.546;2023-05-15T04:01:26;11.80;99.90
18189;DHT22;9219;50.396;8.546;2023-05-15T04:03:53;11.90;99.90
18189;DHT22;9219;50.396;8.546;2023-05-15T04:06:21;12.00;99.90
18189;DHT22;9219;50.396;8.546;2023-05-15T04:08:48;11.90;99.90
18189;DHT22;9219;50.396;8.546;2023-05-15T04:11:15;11.80;99.90
18189;DHT22;9219;50.396;8.546;2023-05-15T04:13:42;11.90;99.90
18189;DHT22;9219;50.396;8.546;2023-05-15T04:18:48;12.00;99.90
18189;DHT22;9219;50.396;8.546;2023-05-15T04:21:16;11.90;99.90
18189;DHT22;9219;50.396;8.546;2023-05-15T04:23:43;11.90;99.90
18189;DHT22;9219;50.396;8.546;2023-05-15T04:26:10;11.90;99.90
18189;DHT22;9219;50.396;8.546;2023-05-15T04:28:38;11.90;99.90
18189;DHT22;9219;50.396;8.546;2023-05-15T04:31:12;12.00;99.90
18189;DHT22;9219;50.396;8.546;2023-05-15T04:33:40;12.00;99.90
18189;DHT22;9219;50.396;8.546;2023-05-15T04:44:19;12.00;99.90
18189;DHT22;9219;50.396;8.546;2023-05-15T04:46:46;12.10;99.90
18189;DHT22;9219;50.396;8.546;2023-05-15T04:49:13;12.20;99.90
18189;DHT22;9219;50.396;8.546;2023-05-15T04:51:41;12.20;99.90
18189;DHT22;9219;50.396;8.546;2023-05-15T04:54:08;12.30;99.90
18189;DHT22;9219;50.396;8.546;2023-05-15T04:56:36;12.30;99.90
18189;DHT22;9219;50.396;8.546;2023-05-15T04:59:03;12.40;99.90
18189;DHT22;9219;50.396;8.546;2023-05-15T05:01:31;12.40;99.90
18189;DHT22;9219;50.396;8.546;2023-05-15T05:09:04;12.40;99.90
18189;DHT22;9219;50.396;8.546;2023-05-15T05:11:31;12.30;99.90
18189;DHT22;9219;50.396;8.546;2023-05-15T05:13:59;12.30;99.90
18189;DHT22;9219;50.396;8.546;2023-05-15T05:16:26;12.20;99.90
18189;DHT22;9219;50.396;8.546;2023-05-15T05:18:54;12.40;99.90
18189;DHT22;9219;50.396;8.546;2023-05-15T05:21:21;12.30;99.90
18189;DHT22;9219;50.396;8.546;2023-05-15T05:23:49;12.10;99.90
18189;DHT22;9219;50.396;8.546;2023-05-15T05:28:57;12.10;99.90
18189;DHT22;9219;50.396;8.546;2023-05-15T05:31:24;12.00;99.90
18189;DHT22;9219;50.396;8.546;2023-05-15T05:33:52;12.00;99.90
18189;DHT22;9219;50.396;8.546;2023-05-15T05:36:19;12.20;99.90
18189;DHT22;9219;50.396;8.546;2023-05-15T05:38:47;12.30;99.90
18189;DHT22;9219;50.396;8.546;2023-05-15T05:41:14;12.40;99.90
18189;DHT22;9219;50.396;8.546;2023-05-15T05:43:41;12.40;99.90
18189;DHT22;9219;50.396;8.546;2023-05-15T05:46:09;12.50;99.90
18189;DHT22;9219;50.396;8.546;2023-05-15T05:53:56;12.50;99.90
18189;DHT22;9219;50.396;8.546;2023-05-15T05:56:23;12.50;99.90
18189;DHT22;9219;50.396;8.546;2023-05-15T05:58:51;12.30;99.90
18189;DHT22;9219;50.396;8.546;2023-05-15T06:01:19;12.20;99.90
18189;DHT22;9219;50.396;8.546;2023-05-15T06:03:47;12.30;99.90
18189;DHT22;9219;50.396;8.546;2023-05-15T06:06:14;12.40;99.90
18189;DHT22;9219;50.396;8.546;2023-05-15T06:08:41;12.50;99.90
18189;DHT22;9219;50.396;8.546;2023-05-15T06:11:09;12.60;99.90
18189;DHT22;9219;50.396;8.546;2023-05-15T06:18:42;12.60;99.90
18189;DHT22;9219;50.396;8.546;2023-05-15T06:21:09;12.60;99.90
18189;DHT22;9219;50.396;8.546;2023-05-15T06:23:37;12.70;99.90
18189;DHT22;9219;50.396;8.546;2023-05-15T06:26:04;12.80;99.90
18189;DHT22;9219;50.396;8.546;2023-05-15T06:28:32;12.80;99.90
18189;DHT22;9219;50.396;8.546;2023-05-15T06:30:59;12.80;99.90
18189;DHT22;9219;50.396;8.546;2023-05-15T06:33:26;12.90;99.90
18189;DHT22;9219;50.396;8.546;2023-05-15T06:35:55;12.90;99.90
18189;DHT22;9219;50.396;8.546;2023-05-15T06:39:02;12.90;99.90
18189;DHT22;9219;50.396;8.546;2023-05-15T06:41:29;12.90;99.90
18189;DHT22;9219;50.396;8.546;2023-05-15T06:44:00;12.80;99.90
18189;DHT22;9219;50.396;8.546;2023-05-15T06:46:29;12.90;99.90
18189;DHT22;9219;50.396;8.546;2023-05-15T06:48:56;13.00;99.90
18189;DHT22;9219;50.396;8.546;2023-05-15T06:51:23;13.10;99.90
18189;DHT22;9219;50.396;8.546;2023-05-15T06:53:50;13.10;99.90
18189;DHT22;9219;50.396;8.546;2023-05-15T06:56:19;13.30;99.90
18189;DHT22;9219;50.396;8.546;2023-05-15T06:59:01;13.20;99.90
18189;DHT22;9219;50.396;8.546;2023-05-15T07:01:29;13.30;99.90
18189;DHT22;9219;50.396;8.546;2023-05-15T07:03:56;13.40;99.90
18189;DHT22;9219;50.396;8.546;2023-05-15T07:06:23;13.60;99.90
18189;DHT22;9219;50.396;8.546;2023-05-15T07:08:52;13.70;99.90
18189;DHT22;9219;50.396;8.546;2023-05-15T07:11:19;13.60;99.90
18189;DHT22;9219;50.396;8.546;2023-05-15T07:13:47;13.80;99.90
18189;DHT22;9219;50.396;8.546;2023-05-15T07:19:00;13.80;99.90
18189;DHT22;9219;50.396;8.546;2023-05-15T07:21:27;13.80;99.90
18189;DHT22;9219;50.396;8.546;2023-05-15T07:23:54;13.80;99.90
18189;DHT22;9219;50.396;8.546;2023-05-15T07:26:21;13.70;99.90
18189;DHT22;9219;50.396;8.546;2023-05-15T07:29:02;13.80;99.90
18189;DHT22;9219;50.396;8.546;2023-05-15T07:31:30;14.10;99.90
18189;DHT22;9219;50.396;8.546;2023-05-15T07:33:59;14.20;99.90
18189;DHT22;9219;50.396;8.546;2023-05-15T07:41:31;14.30;99.90
18189;DHT22;9219;50.396;8.546;2023-05-15T07:43:58;14.50;99.90
18189;DHT22;9219;50.396;8.546;2023-05-15T07:46:26;14.50;99.90
18189;DHT22;9219;50.396;8.546;2023-05-15T07:48:53;14.50;99.90
18189;DHT22;9219;50.396;8.546;2023-05-15T07:51:20;14.70;99.90
18189;DHT22;9219;50.396;8.546;2023-05-15T07:53:47;14.80;99.90
18189;DHT22;9219;50.396;8.546;2023-05-15T07:56:15;14.90;99.90
18189;DHT22;9219;50.396;8.546;2023-05-15T07:58:44;15.00;99.90
18189;DHT22;9219;50.396;8.546;2023-05-15T08:06:27;15.00;99.90
18189;DHT22;9219;50.396;8.546;2023-05-15T08:08:54;15.20;99.90
18189;DHT22;9219;50.396;8.546;2023-05-15T08:11:21;15.40;99.90
18189;DHT22;9219;50.396;8.546;2023-05-15T08:13:49;15.40;99.90
18189;DHT22;9219;50.396;8.546;2023-05-15T08:16:17;15.30;99.90
18189;DHT22;9219;50.396;8.546;2023-05-15T08:18:45;15.30;99.90
18189;DHT22;9219;50.396;8.546;2023-05-15T08:21:13;15.20;99.90
18189;DHT22;9219;50.396;8.546;2023-05-15T08:29:26;15.40;99.90
18189;DHT22;9219;50.396;8.546;2023-05-15T08:31:56;15.60;99.90
18189;DHT22;9219;50.396;8.546;2023-05-15T08:34:24;15.60;99.90
18189;DHT22;9219;50.396;8.546;2023-05-15T08:36:51;15.70;99.90
18189;DHT22;9219;50.396;8.546;2023-05-15T08:39:18;15.80;99.90
18189;DHT22;9219;50.396;8.546;2023-05-15T08:41:49;15.90;99.90
18189;DHT22;9219;50.396;8.546;2023-05-15T08:44:18;16.20;99.90
18189;DHT22;9219;50.396;8.546;2023-05-15T08:49:34;16.10;99.90
18189;DHT22;9219;50.396;8.546;2023-05-15T08:52:03;16.20;99.90
18189;DHT22;9219;50.396;8.546;2023-05-15T08:54:31;15.90;99.90
18189;DHT22;9219;50.396;8.546;2023-05-15T08:56:59;16.10;99.90
18189;DHT22;9219;50.396;8.546;2023-05-15T08:59:28;16.00;99.90
18189;DHT22;9219;50.396;8.546;2023-05-15T09:01:56;16.10;99.90
18189;DHT22;9219;50.396;8.546;2023-05-15T09:04:23;16.10;99.90
18189;DHT22;9219;50.396;8.546;2023-05-15T09:11:55;16.70;99.90
18189;DHT22;9219;50.396;8.546;2023-05-15T09:14:22;16.50;99.90
18189;DHT22;9219;50.396;8.546;2023-05-15T09:16:50;16.50;99.90
18189;DHT22;9219;50.396;8.546;2023-05-15T09:19:19;16.70;99.90
18189;DHT22;9219;50.396;8.546;2023-05-15T09:21:48;16.90;99.90
18189;DHT22;9219;50.396;8.546;2023-05-15T09:24:16;17.00;99.90
18189;DHT22;9219;50.396;8.546;2023-05-15T09:26:46;17.20;99.90
18189;DHT22;9219;50.396;8.546;2023-05-15T09:29:16;17.30;99.90
18189;DHT22;9219;50.396;8.546;2023-05-15T09:32:09;17.20;99.90
18189;DHT22;9219;50.396;8.546;2023-05-15T09:34:38;17.70;99.90
18189;DHT22;9219;50.396;8.546;2023-05-15T09:37:08;17.50;99.90
18189;DHT22;9219;50.396;8.546;2023-05-15T09:39:40;17.40;99.90
18189;DHT22;9219;50.396;8.546;2023-05-15T09:42:10;17.30;99.90
18189;DHT22;9219;50.396;8.546;2023-05-15T09:44:40;17.40;99.90
18189;DHT22;9219;50.396;8.546;2023-05-15T09:47:09;17.50;99.90
18189;DHT22;9219;50.396;8.546;2023-05-15T09:49:43;17.90;99.90
18189;DHT22;9219;50.396;8.546;2023-05-15T09:52:35;18.00;99.90
18189;DHT22;9219;50.396;8.546;2023-05-15T09:55:02;17.90;99.90
18189;DHT22;9219;50.396;8.546;2023-05-15T09:57:29;18.10;99.90
18189;DHT22;9219;50.396;8.546;2023-05-15T09:59:59;18.20;99.90
18189;DHT22;9219;50.396;8.546;2023-05-15T10:02:30;18.10;99.90
18189;DHT22;9219;50.396;8.546;2023-05-15T10:04:58;17.60;99.90
18189;DHT22;9219;50.396;8.546;2023-05-15T10:07:27;17.50;99.90
18189;DHT22;9219;50.396;8.546;2023-05-15T10:12:35;17.60;99.90
18189;DHT22;9219;50.396;8.546;2023-05-15T10:15:02;17.70;99.90
18189;DHT22;9219;50.396;8.546;2023-05-15T10:17:31;17.60;99.90
18189;DHT22;9219;50.396;8.546;2023-05-15T10:20:01;17.30;99.90
18189;DHT22;9219;50.396;8.546;2023-05-15T10:22:36;17.10;99.90
18189;DHT22;9219;50.396;8.546;2023-05-15T10:25:08;17.00;99.90
18189;DHT22;9219;50.396;8.546;2023-05-15T10:30:47;17.30;99.90
18189;DHT22;9219;50.396;8.546;2023-05-15T10:33:15;17.10;99.90
18189;DHT22;9219;50.396;8.546;2023-05-15T10:35:43;17.50;99.90
18189;DHT22;9219;50.396;8.546;2023-05-15T10:38:11;17.50;99.90
18189;DHT22;9219;50.396;8.546;2023-05-15T10:40:39;17.60;99.90
18189;DHT22;9219;50.396;8.546;2023-05-15T10:43:08;17.50;99.90
18189;DHT22;9219;50.396;8.546;2023-05-15T10:45:38;16.90;99.90
18189;DHT22;9219;50.396;8.546;2023-05-15T10:51:17;16.60;99.90
18189;DHT22;9219;50.396;8.546;2023-05-15T10:53:45;16.30;99.90
18189;DHT22;9219;50.396;8.546;2023-05-15T10:56:13;16.00;99.90
18189;DHT22;9219;50.396;8.546;2023-05-15T10:58:45;15.80;99.90
18189;DHT22;9219;50.396;8.546;2023-05-15T11:01:25;15.90;99.90
18189;DHT22;9219;50.396;8.546;2023-05-15T11:04:04;15.80;99.90
18189;DHT22;9219;50.396;8.546;2023-05-15T11:06:33;16.00;99.90
18189;DHT22;9219;50.396;8.546;2023-05-15T11:14:39;16.20;99.90
18189;DHT22;9219;50.396;8.546;2023-05-15T11:17:07;15.70;99.90
18189;DHT22;9219;50.396;8.546;2023-05-15T11:19:53;15.80;99.90
18189;DHT22;9219;50.396;8.546;2023-05-15T11:22:29;16.10;99.90
18189;DHT22;9219;50.396;8.546;2023-05-15T11:25:00;16.10;99.90
18189;DHT22;9219;50.396;8.546;2023-05-15T11:27:30;16.30;99.90
18189;DHT22;9219;50.396;8.546;2023-05-15T11:30:13;16.60;99.90
18189;DHT22;9219;50.396;8.546;2023-05-15T11:37:46;16.80;99.90
18189;DHT22;9219;50.396;8.546;2023-05-15T11:40:14;17.20;99.90
18189;DHT22;9219;50.396;8.546;2023-05-15T11:42:57;17.10;99.90
18189;DHT22;9219;50.396;8.546;2023-05-15T11:45:26;17.30;99.90
18189;DHT22;9219;50.396;8.546;2023-05-15T11:47:54;17.70;99.90
18189;DHT22;9219;50.396;8.546;2023-05-15T11:50:22;18.10;99.90
18189;DHT22;9219;50.396;8.546;2023-05-15T11:52:52;18.40;99.90
18189;DHT22;9219;50.396;8.546;2023-05-15T11:58:13;18.70;99.90
18189;DHT22;9219;50.396;8.546;2023-05-15T12:00:41;19.20;99.90
18189;DHT22;9219;50.396;8.546;2023-05-15T12:03:14;19.40;99.90
18189;DHT22;9219;50.396;8.546;2023-05-15T12:05:42;19.30;99.90
18189;DHT22;9219;50.396;8.546;2023-05-15T12:08:23;19.10;99.90
18189;DHT22;9219;50.396;8.546;2023-05-15T12:10:51;18.70;99.90
18189;DHT22;9219;50.396;8.546;2023-05-15T12:13:20;18.60;99.90
18189;DHT22;9219;50.396;8.546;2023-05-15T12:23:25;19.30;99.90
18189;DHT22;9219;50.396;8.546;2023-05-15T12:25:56;19.40;99.90
18189;DHT22;9219;50.396;8.546;2023-05-15T12:28:25;19.60;99.90
18189;DHT22;9219;50.396;8.546;2023-05-15T12:30:54;19.80;99.90
18189;DHT22;9219;50.396;8.546;2023-05-15T12:33:22;19.60;99.90
18189;DHT22;9219;50.396;8.546;2023-05-15T12:35:53;19.50;99.90
18189;DHT22;9219;50.396;8.546;2023-05-15T12:38:24;19.40;99.90
18189;DHT22;9219;50.396;8.546;2023-05-15T12:43:36;19.70;99.90
18189;DHT22;9219;50.396;8.546;2023-05-15T12:46:04;19.70;99.90
18189;DHT22;9219;50.396;8.546;2023-05-15T12:48:32;19.80;99.90
18189;DHT22;9219;50.396;8.546;2023-05-15T12:51:06;19.60;99.90
18189;DHT22;9219;50.396;8.546;2023-05-15T12:53:34;19.50;99.90
18189;DHT22;9219;50.396;8.546;2023-05-15T12:56:04;19.60;99.90
18189;DHT22;9219;50.396;8.546;2023-05-15T12:58:32;19.60;99.90
18189;DHT22;9219;50.396;8.546;2023-05-15T13:01:02;19.50;99.90
18189;DHT22;9219;50.396;8.546;2023-05-15T13:08:46;19.00;99.90
18189;DHT22;9219;50.396;8.546;2023-05-15T13:11:17;17.00;99.90
18189;DHT22;9219;50.396;8.546;2023-05-15T13:13:47;16.20;99.90
18189;DHT22;9219;50.396;8.546;2023-05-15T13:16:22;15.60;99.90
18189;DHT22;9219;50.396;8.546;2023-05-15T13:18:51;15.90;99.90
18189;DHT22;9219;50.396;8.546;2023-05-15T13:21:20;16.50;99.90
18189;DHT22;9219;50.396;8.546;2023-05-15T13:23:51;16.90;99.90
18189;DHT22;9219;50.396;8.546;2023-05-15T13:31:27;17.50;99.90
18189;DHT22;9219;50.396;8.546;2023-05-15T13:33:55;17.70;99.90
18189;DHT22;9219;50.396;8.546;2023-05-15T13:36:25;17.60;99.90
18189;DHT22;9219;50.396;8.546;2023-05-15T13:38:53;17.60;99.90
18189;DHT22;9219;50.396;8.546;2023-05-15T13:41:22;17.20;99.90
18189;DHT22;9219;50.396;8.546;2023-05-15T13:43:51;16.70;99.90
18189;DHT22;9219;50.396;8.546;2023-05-15T13:46:20;16.50;99.90
18189;DHT22;9219;50.396;8.546;2023-05-15T13:52:09;16.20;99.90
18189;DHT22;9219;50.396;8.546;2023-05-15T13:54:37;16.20;99.90
18189;DHT22;9219;50.396;8.546;2023-05-15T13:57:05;16.10;99.90
18189;DHT22;9219;50.396;8.546;2023-05-15T13:59:33;15.60;99.90
18189;DHT22;9219;50.396;8.546;2023-05-15T14:02:00;15.80;99.90
18189;DHT22;9219;50.396;8.546;2023-05-15T14:04:28;15.70;99.90
18189;DHT22;9219;50.396;8.546;2023-05-15T14:06:55;15.80;99.90
18189;DHT22;9219;50.396;8.546;2023-05-15T14:09:25;15.70;99.90
18189;DHT22;9219;50.396;8.546;2023-05-15T14:16:55;15.90;99.90
18189;DHT22;9219;50.396;8.546;2023-05-15T14:19:26;16.10;99.90
18189;DHT22;9219;50.396;8.546;2023-05-15T14:21:57;16.00;99.90
18189;DHT22;9219;50.396;8.546;2023-05-15T14:24:25;16.00;99.90
18189;DHT22;9219;50.396;8.546;2023-05-15T14:26:53;15.90;99.90
18189;DHT22;9219;50.396;8.546;2023-05-15T14:29:20;15.80;99.90
18189;DHT22;9219;50.396;8.546;2023-05-15T14:31:48;15.90;99.90
18189;DHT22;9219;50.396;8.546;2023-05-15T14:40:10;15.80;99.90
18189;DHT22;9219;50.396;8.546;2023-05-15T14:42:38;15.60;99.90
18189;DHT22;9219;50.396;8.546;2023-05-15T14:45:07;15.60;99.90
18189;DHT22;9219;50.396;8.546;2023-05-15T14:47:35;15.40;99.90
18189;DHT22;9219;50.396;8.546;2023-05-15T14:50:04;15.40;99.90
18189;DHT22;9219;50.396;8.546;2023-05-15T14:52:33;15.40;99.90
18189;DHT22;9219;50.396;8.546;2023-05-15T14:55:04;14.90;99.90
18189;DHT22;9219;50.396;8.546;2023-05-15T15:03:15;14.70;99.90
18189;DHT22;9219;50.396;8.546;2023-05-15T15:05:45;15.10;99.90
18189;DHT22;9219;50.396;8.546;2023-05-15T15:08:14;15.40;99.90
18189;DHT22;9219;50.396;8.546;2023-05-15T15:10:44;15.40;99.90
18189;DHT22;9219;50.396;8.546;2023-05-15T15:13:12;15.30;99.90
18189;DHT22;9219;50.396;8.546;2023-05-15T15:15:41;15.30;99.90
18189;DHT22;9219;50.396;8.546;2023-05-15T15:18:08;15.30;99.90
18189;DHT22;9219;50.396;8.546;2023-05-15T15:23:24;15.20;99.90
18189;DHT22;9219;50.396;8.546;2023-05-15T15:25:57;15.20;99.90
18189;DHT22;9219;50.396;8.546;2023-05-15T15:28:25;15.00;99.90
18189;DHT22;9219;50.396;8.546;2023-05-15T15:30:54;15.00;99.90
18189;DHT22;9219;50.396;8.546;2023-05-15T15:33:23;14.90;99.90
18189;DHT22;9219;50.396;8.546;2023-05-15T15:35:51;14.90;99.90
18189;DHT22;9219;50.396;8.546;2023-05-15T15:38:19;14.90;99.90
18189;DHT22;9219;50.396;8.546;2023-05-15T15:46:38;15.10;99.90
18189;DHT22;9219;50.396;8.546;2023-05-15T15:49:06;15.10;99.90
18189;DHT22;9219;50.396;8.546;2023-05-15T15:51:37;14.70;99.90
18189;DHT22;9219;50.396;8.546;2023-05-15T15:54:04;14.70;99.90
18189;DHT22;9219;50.396;8.546;2023-05-15T15:56:33;14.70;99.90
18189;DHT22;9219;50.396;8.546;2023-05-15T15:59:02;14.40;99.90
18189;DHT22;9219;50.396;8.546;2023-05-15T16:01:29;14.30;99.90
18189;DHT22;9219;50.396;8.546;2023-05-15T16:07:06;14.30;99.90
18189;DHT22;9219;50.396;8.546;2023-05-15T16:09:35;14.40;99.90
18189;DHT22;9219;50.396;8.546;2023-05-15T16:12:04;14.30;99.90
18189;DHT22;9219;50.396;8.546;2023-05-15T16:14:33;14.30;99.90
18189;DHT22;9219;50.396;8.546;2023-05-15T16:17:01;14.30;99.90
18189;DHT22;9219;50.396;8.546;2023-05-15T16:19:31;14.30;99.90
18189;DHT22;9219;50.396;8.546;2023-05-15T16:22:01;14.30;99.90
18189;DHT22;9219;50.396;8.546;2023-05-15T16:27:51;14.20;99.90
18189;DHT22;9219;50.396;8.546;2023-05-15T16:30:19;14.20;99.90
18189;DHT22;9219;50.396;8.546;2023-05-15T16:32:52;14.20;99.90
18189;DHT22;9219;50.396;8.546;2023-05-15T16:35:21;14.10;99.90
18189;DHT22;9219;50.396;8.546;2023-05-15T16:37:50;14.30;99.90
18189;DHT22;9219;50.396;8.546;2023-05-15T16:40:19;14.30;99.90
18189;DHT22;9219;50.396;8.546;2023-05-15T16:42:49;14.40;99.90
18189;DHT22;9219;50.396;8.546;2023-05-15T16:47:58;14.50;99.90
18189;DHT22;9219;50.396;8.546;2023-05-15T16:50:26;14.50;99.90
18189;DHT22;9219;50.396;8.546;2023-05-15T16:52:54;14.40;99.90
18189;DHT22;9219;50.396;8.546;2023-05-15T16:55:22;14.40;99.90
18189;DHT22;9219;50.396;8.546;2023-05-15T16:57:50;14.50;99.90
18189;DHT22;9219;50.396;8.546;2023-05-15T17:00:18;14.70;99.90
18189;DHT22;9219;50.396;8.546;2023-05-15T17:02:48;14.70;99.90
18189;DHT22;9219;50.396;8.546;2023-05-15T17:13:13;14.90;99.90
18189;DHT22;9219;50.396;8.546;2023-05-15T17:15:42;14.20;99.90
18189;DHT22;9219;50.396;8.546;2023-05-15T17:18:10;14.20;99.90
18189;DHT22;9219;50.396;8.546;2023-05-15T17:20:38;14.40;99.90
18189;DHT22;9219;50.396;8.546;2023-05-15T17:23:08;14.40;99.90
18189;DHT22;9219;50.396;8.546;2023-05-15T17:25:38;14.30;99.90
18189;DHT22;9219;50.396;8.546;2023-05-15T17:28:08;14.20;99.90
18189;DHT22;9219;50.396;8.546;2023-05-15T17:36:29;14.20;99.90
18189;DHT22;9219;50.396;8.546;2023-05-15T17:38:57;14.10;99.90
18189;DHT22;9219;50.396;8.546;2023-05-15T17:41:25;14.20;99.90
18189;DHT22;9219;50.396;8.546;2023-05-15T17:43:52;14.20;99.90
18189;DHT22;9219;50.396;8.546;2023-05-15T17:46:20;14.20;99.90
18189;DHT22;9219;50.396;8.546;2023-05-15T17:48:50;14.40;99.90
18189;DHT22;9219;50.396;8.546;2023-05-15T17:51:22;14.30;99.90
18189;DHT22;9219;50.396;8.546;2023-05-15T17:56:37;14.30;99.90
18189;DHT22;9219;50.396;8.546;2023-05-15T17:59:06;14.30;99.90
18189;DHT22;9219;50.396;8.546;2023-05-15T18:01:36;14.20;99.90
18189;DHT22;9219;50.396;8.546;2023-05-15T18:04:06;14.30;99.90
18189;DHT22;9219;50.396;8.546;2023-05-15T18:06:36;14.30;99.90
18189;DHT22;9219;50.396;8.546;2023-05-15T18:09:04;14.40;99.90
18189;DHT22;9219;50.396;8.546;2023-05-15T18:11:32;14.50;99.90
18189;DHT22;9219;50.396;8.546;2023-05-15T18:16:41;14.60;99.90
18189;DHT22;9219;50.396;8.546;2023-05-15T18:19:11;14.80;99.90
18189;DHT22;9219;50.396;8.546;2023-05-15T18:21:39;14.70;99.90
18189;DHT22;9219;50.396;8.546;2023-05-15T18:24:09;14.70;99.90
18189;DHT22;9219;50.396;8.546;2023-05-15T18:26:38;14.60;99.90
18189;DHT22;9219;50.396;8.546;2023-05-15T18:29:07;14.50;99.90
18189;DHT22;9219;50.396;8.546;2023-05-15T18:31:36;14.40;99.90
18189;DHT22;9219;50.396;8.546;2023-05-15T18:34:10;14.40;99.90
18189;DHT22;9219;50.396;8.546;2023-05-15T18:41:44;14.40;99.90
18189;DHT22;9219;50.396;8.546;2023-05-15T18:44:16;14.30;99.90
18189;DHT22;9219;50.396;8.546;2023-05-15T18:46:46;14.30;99.90
18189;DHT22;9219;50.396;8.546;2023-05-15T18:49:15;14.30;99.90
18189;DHT22;9219;50.396;8.546;2023-05-15T18:51:47;14.20;99.90
18189;DHT22;9219;50.396;8.546;2023-05-15T18:54:17;14.10;99.90
18189;DHT22;9219;50.396;8.546;2023-05-15T18:56:48;14.00;99.90
18189;DHT22;9219;50.396;8.546;2023-05-15T18:59:20;13.90;99.90
18189;DHT22;9219;50.396;8.546;2023-05-15T19:07:11;13.80;99.90
18189;DHT22;9219;50.396;8.546;2023-05-15T19:09:43;13.80;99.90
18189;DHT22;9219;50.396;8.546;2023-05-15T19:12:15;13.90;99.90
18189;DHT22;9219;50.396;8.546;2023-05-15T19:14:46;14.00;99.90
18189;DHT22;9219;50.396;8.546;2023-05-15T19:17:16;14.00;99.90
18189;DHT22;9219;50.396;8.546;2023-05-15T19:19:47;13.90;99.90
18189;DHT22;9219;50.396;8.546;2023-05-15T19:22:19;13.90;99.90
18189;DHT22;9219;50.396;8.546;2023-05-15T19:24:48;13.90;99.90
18189;DHT22;9219;50.396;8.546;2023-05-15T19:32:34;13.60;99.90